You are not logged in, Click here to log in
機場資訊:YBBN Welcome to Taiwan Airways 台灣虛擬航空
ICAO: YBBN Country: 澳洲
Latitude: -27.3942 Longitude: 153.122
Total Arrivals: 11 Total Departures: 7
Latest Arrival: R3T58 (YSSY-YBBN)Arthur. Kung Latest Departure: HA444 (YBBN-PHNL)Arthur. Kung
Scenery:
METAR : YBBN 132030Z 21007KT 9999 FEW040 16/12 Q1019 FM2300 04008KT 9999 FEW040

布里斯本機場BNE